sensor_id;sensor_type;location;lat;lon;timestamp;P1;durP1;ratioP1;P2;durP2;ratioP2
20391;SDS011;10355;53.688;10.078;2022-10-18T00:02:24;7.30;;;3.33;;
20391;SDS011;10355;53.688;10.078;2022-10-18T00:05:07;6.00;;;3.55;;
20391;SDS011;10355;53.688;10.078;2022-10-18T00:07:50;5.50;;;3.47;;
20391;SDS011;10355;53.688;10.078;2022-10-18T00:10:32;7.43;;;3.58;;
20391;SDS011;10355;53.688;10.078;2022-10-18T00:13:15;4.85;;;3.17;;
20391;SDS011;10355;53.688;10.078;2022-10-18T00:15:59;5.70;;;3.58;;
20391;SDS011;10355;53.688;10.078;2022-10-18T00:18:43;8.60;;;3.72;;
20391;SDS011;10355;53.688;10.078;2022-10-18T00:21:28;7.15;;;3.75;;
20391;SDS011;10355;53.688;10.078;2022-10-18T00:24:11;6.68;;;3.35;;
20391;SDS011;10355;53.688;10.078;2022-10-18T00:26:54;8.63;;;3.60;;
20391;SDS011;10355;53.688;10.078;2022-10-18T00:29:36;7.10;;;3.53;;
20391;SDS011;10355;53.688;10.078;2022-10-18T00:32:19;5.35;;;3.80;;
20391;SDS011;10355;53.688;10.078;2022-10-18T00:35:04;7.05;;;3.55;;
20391;SDS011;10355;53.688;10.078;2022-10-18T00:37:48;8.88;;;3.47;;
20391;SDS011;10355;53.688;10.078;2022-10-18T00:40:30;8.65;;;4.22;;
20391;SDS011;10355;53.688;10.078;2022-10-18T00:43:14;6.07;;;3.45;;
20391;SDS011;10355;53.688;10.078;2022-10-18T00:45:57;7.10;;;3.97;;
20391;SDS011;10355;53.688;10.078;2022-10-18T00:48:40;5.85;;;3.95;;
20391;SDS011;10355;53.688;10.078;2022-10-18T00:51:25;6.43;;;4.00;;
20391;SDS011;10355;53.688;10.078;2022-10-18T00:54:08;7.03;;;4.10;;
20391;SDS011;10355;53.688;10.078;2022-10-18T00:56:52;8.90;;;4.47;;
20391;SDS011;10355;53.688;10.078;2022-10-18T00:59:34;12.30;;;4.20;;
20391;SDS011;10355;53.688;10.078;2022-10-18T01:02:17;8.32;;;4.50;;
20391;SDS011;10355;53.688;10.078;2022-10-18T01:05:00;7.78;;;3.92;;
20391;SDS011;10355;53.688;10.078;2022-10-18T01:10:50;7.40;;;4.20;;
20391;SDS011;10355;53.688;10.078;2022-10-18T01:13:39;10.13;;;4.47;;
20391;SDS011;10355;53.688;10.078;2022-10-18T01:16:23;7.82;;;3.90;;
20391;SDS011;10355;53.688;10.078;2022-10-18T01:19:11;7.30;;;3.88;;
20391;SDS011;10355;53.688;10.078;2022-10-18T01:21:59;7.35;;;4.32;;
20391;SDS011;10355;53.688;10.078;2022-10-18T01:24:57;7.75;;;4.65;;
20391;SDS011;10355;53.688;10.078;2022-10-18T01:27:48;11.98;;;4.68;;
20391;SDS011;10355;53.688;10.078;2022-10-18T01:30:44;9.23;;;4.50;;
20391;SDS011;10355;53.688;10.078;2022-10-18T01:33:30;7.72;;;4.18;;
20391;SDS011;10355;53.688;10.078;2022-10-18T01:36:16;9.70;;;4.72;;
20391;SDS011;10355;53.688;10.078;2022-10-18T01:39:02;7.07;;;4.35;;
20391;SDS011;10355;53.688;10.078;2022-10-18T01:41:47;7.45;;;4.93;;
20391;SDS011;10355;53.688;10.078;2022-10-18T01:44:30;10.25;;;4.65;;
20391;SDS011;10355;53.688;10.078;2022-10-18T01:47:15;9.65;;;5.18;;
20391;SDS011;10355;53.688;10.078;2022-10-18T01:49:59;9.52;;;4.88;;
20391;SDS011;10355;53.688;10.078;2022-10-18T01:52:46;6.65;;;4.70;;
20391;SDS011;10355;53.688;10.078;2022-10-18T01:55:30;8.60;;;4.72;;
20391;SDS011;10355;53.688;10.078;2022-10-18T01:58:17;7.63;;;5.07;;
20391;SDS011;10355;53.688;10.078;2022-10-18T02:01:02;7.63;;;5.35;;
20391;SDS011;10355;53.688;10.078;2022-10-18T02:03:49;6.30;;;4.55;;
20391;SDS011;10355;53.688;10.078;2022-10-18T02:06:34;8.82;;;4.80;;
20391;SDS011;10355;53.688;10.078;2022-10-18T02:09:18;8.05;;;4.60;;
20391;SDS011;10355;53.688;10.078;2022-10-18T02:12:03;10.23;;;5.05;;
20391;SDS011;10355;53.688;10.078;2022-10-18T02:14:46;8.77;;;5.60;;
20391;SDS011;10355;53.688;10.078;2022-10-18T02:17:29;9.10;;;4.95;;
20391;SDS011;10355;53.688;10.078;2022-10-18T02:20:15;9.30;;;5.20;;
20391;SDS011;10355;53.688;10.078;2022-10-18T02:22:59;8.50;;;5.15;;
20391;SDS011;10355;53.688;10.078;2022-10-18T02:25:43;9.68;;;5.38;;
20391;SDS011;10355;53.688;10.078;2022-10-18T02:28:26;8.02;;;5.43;;
20391;SDS011;10355;53.688;10.078;2022-10-18T02:31:10;10.40;;;5.50;;
20391;SDS011;10355;53.688;10.078;2022-10-18T02:33:55;9.65;;;5.63;;
20391;SDS011;10355;53.688;10.078;2022-10-18T02:36:41;11.55;;;6.07;;
20391;SDS011;10355;53.688;10.078;2022-10-18T02:39:26;11.02;;;5.43;;
20391;SDS011;10355;53.688;10.078;2022-10-18T02:42:10;13.48;;;5.57;;
20391;SDS011;10355;53.688;10.078;2022-10-18T02:44:53;10.75;;;6.35;;
20391;SDS011;10355;53.688;10.078;2022-10-18T02:47:36;11.90;;;6.35;;
20391;SDS011;10355;53.688;10.078;2022-10-18T02:50:18;11.73;;;6.20;;
20391;SDS011;10355;53.688;10.078;2022-10-18T02:53:02;12.55;;;6.00;;
20391;SDS011;10355;53.688;10.078;2022-10-18T02:55:45;9.50;;;5.35;;
20391;SDS011;10355;53.688;10.078;2022-10-18T02:58:28;12.25;;;6.32;;
20391;SDS011;10355;53.688;10.078;2022-10-18T03:01:11;14.45;;;7.10;;
20391;SDS011;10355;53.688;10.078;2022-10-18T03:03:54;15.32;;;6.68;;
20391;SDS011;10355;53.688;10.078;2022-10-18T03:06:37;12.93;;;6.82;;
20391;SDS011;10355;53.688;10.078;2022-10-18T03:09:21;10.63;;;6.63;;
20391;SDS011;10355;53.688;10.078;2022-10-18T03:12:04;14.80;;;7.10;;
20391;SDS011;10355;53.688;10.078;2022-10-18T03:14:47;11.40;;;6.35;;
20391;SDS011;10355;53.688;10.078;2022-10-18T03:17:29;11.45;;;6.20;;
20391;SDS011;10355;53.688;10.078;2022-10-18T03:20:13;10.32;;;6.45;;
20391;SDS011;10355;53.688;10.078;2022-10-18T03:22:55;13.48;;;7.00;;
20391;SDS011;10355;53.688;10.078;2022-10-18T03:25:39;13.32;;;7.30;;
20391;SDS011;10355;53.688;10.078;2022-10-18T03:28:26;10.77;;;6.05;;
20391;SDS011;10355;53.688;10.078;2022-10-18T03:31:09;11.40;;;6.43;;
20391;SDS011;10355;53.688;10.078;2022-10-18T03:33:52;9.70;;;5.65;;
20391;SDS011;10355;53.688;10.078;2022-10-18T03:36:35;10.00;;;5.75;;
20391;SDS011;10355;53.688;10.078;2022-10-18T03:39:19;10.30;;;5.63;;
20391;SDS011;10355;53.688;10.078;2022-10-18T03:42:03;13.27;;;6.00;;
20391;SDS011;10355;53.688;10.078;2022-10-18T03:44:46;13.27;;;5.95;;
20391;SDS011;10355;53.688;10.078;2022-10-18T03:47:28;12.18;;;6.57;;
20391;SDS011;10355;53.688;10.078;2022-10-18T03:50:11;12.07;;;6.55;;
20391;SDS011;10355;53.688;10.078;2022-10-18T03:52:54;14.27;;;6.47;;
20391;SDS011;10355;53.688;10.078;2022-10-18T03:55:37;11.00;;;6.65;;
20391;SDS011;10355;53.688;10.078;2022-10-18T03:58:21;11.63;;;7.07;;
20391;SDS011;10355;53.688;10.078;2022-10-18T04:01:04;12.85;;;7.75;;
20391;SDS011;10355;53.688;10.078;2022-10-18T04:03:47;14.40;;;7.13;;
20391;SDS011;10355;53.688;10.078;2022-10-18T04:06:30;13.02;;;7.40;;
20391;SDS011;10355;53.688;10.078;2022-10-18T04:09:13;12.27;;;7.05;;
20391;SDS011;10355;53.688;10.078;2022-10-18T04:11:56;12.10;;;7.72;;
20391;SDS011;10355;53.688;10.078;2022-10-18T04:14:40;13.52;;;7.43;;
20391;SDS011;10355;53.688;10.078;2022-10-18T04:17:23;15.02;;;8.02;;
20391;SDS011;10355;53.688;10.078;2022-10-18T04:20:06;16.77;;;7.47;;
20391;SDS011;10355;53.688;10.078;2022-10-18T04:22:49;14.25;;;7.50;;
20391;SDS011;10355;53.688;10.078;2022-10-18T04:25:32;14.75;;;7.68;;
20391;SDS011;10355;53.688;10.078;2022-10-18T04:28:15;12.95;;;7.50;;
20391;SDS011;10355;53.688;10.078;2022-10-18T04:30:59;13.52;;;7.82;;
20391;SDS011;10355;53.688;10.078;2022-10-18T04:33:41;13.57;;;6.90;;
20391;SDS011;10355;53.688;10.078;2022-10-18T04:36:24;12.80;;;7.72;;
20391;SDS011;10355;53.688;10.078;2022-10-18T04:39:07;14.32;;;8.07;;
20391;SDS011;10355;53.688;10.078;2022-10-18T04:41:50;14.90;;;7.72;;
20391;SDS011;10355;53.688;10.078;2022-10-18T04:44:33;14.38;;;8.10;;
20391;SDS011;10355;53.688;10.078;2022-10-18T04:47:17;16.05;;;8.50;;
20391;SDS011;10355;53.688;10.078;2022-10-18T04:49:59;18.20;;;8.43;;
20391;SDS011;10355;53.688;10.078;2022-10-18T04:52:42;12.57;;;7.68;;
20391;SDS011;10355;53.688;10.078;2022-10-18T04:55:25;17.35;;;8.50;;
20391;SDS011;10355;53.688;10.078;2022-10-18T04:58:08;14.48;;;8.00;;
20391;SDS011;10355;53.688;10.078;2022-10-18T05:00:51;15.75;;;7.85;;
20391;SDS011;10355;53.688;10.078;2022-10-18T05:03:35;14.73;;;7.63;;
20391;SDS011;10355;53.688;10.078;2022-10-18T05:06:18;17.48;;;8.30;;
20391;SDS011;10355;53.688;10.078;2022-10-18T05:09:01;14.07;;;8.15;;
20391;SDS011;10355;53.688;10.078;2022-10-18T05:11:44;17.77;;;8.00;;
20391;SDS011;10355;53.688;10.078;2022-10-18T05:14:26;15.82;;;7.88;;
20391;SDS011;10355;53.688;10.078;2022-10-18T05:17:12;17.63;;;8.23;;
20391;SDS011;10355;53.688;10.078;2022-10-18T05:19:56;17.92;;;8.25;;
20391;SDS011;10355;53.688;10.078;2022-10-18T05:22:39;17.85;;;8.60;;
20391;SDS011;10355;53.688;10.078;2022-10-18T05:25:22;15.25;;;8.82;;
20391;SDS011;10355;53.688;10.078;2022-10-18T05:28:05;17.98;;;8.63;;
20391;SDS011;10355;53.688;10.078;2022-10-18T05:31:08;15.13;;;8.32;;
20391;SDS011;10355;53.688;10.078;2022-10-18T05:33:52;16.30;;;8.55;;
20391;SDS011;10355;53.688;10.078;2022-10-18T05:36:36;16.77;;;8.40;;
20391;SDS011;10355;53.688;10.078;2022-10-18T05:39:19;15.38;;;8.48;;
20391;SDS011;10355;53.688;10.078;2022-10-18T05:42:02;14.20;;;8.00;;
20391;SDS011;10355;53.688;10.078;2022-10-18T05:44:44;14.90;;;7.78;;
20391;SDS011;10355;53.688;10.078;2022-10-18T05:47:27;15.73;;;8.65;;
20391;SDS011;10355;53.688;10.078;2022-10-18T05:50:10;21.08;;;8.05;;
20391;SDS011;10355;53.688;10.078;2022-10-18T05:52:56;15.55;;;8.07;;
20391;SDS011;10355;53.688;10.078;2022-10-18T05:55:52;15.07;;;8.10;;
20391;SDS011;10355;53.688;10.078;2022-10-18T06:01:40;12.25;;;6.32;;
20391;SDS011;10355;53.688;10.078;2022-10-18T06:04:23;13.20;;;6.80;;
20391;SDS011;10355;53.688;10.078;2022-10-18T06:07:07;15.05;;;6.88;;
20391;SDS011;10355;53.688;10.078;2022-10-18T06:09:51;14.18;;;6.47;;
20391;SDS011;10355;53.688;10.078;2022-10-18T06:12:33;17.85;;;7.13;;
20391;SDS011;10355;53.688;10.078;2022-10-18T06:15:16;14.00;;;6.43;;
20391;SDS011;10355;53.688;10.078;2022-10-18T06:17:59;12.68;;;6.40;;
20391;SDS011;10355;53.688;10.078;2022-10-18T06:20:41;16.98;;;6.35;;
20391;SDS011;10355;53.688;10.078;2022-10-18T06:23:24;17.48;;;7.10;;
20391;SDS011;10355;53.688;10.078;2022-10-18T06:26:09;13.48;;;6.57;;
20391;SDS011;10355;53.688;10.078;2022-10-18T06:28:52;13.07;;;6.40;;
20391;SDS011;10355;53.688;10.078;2022-10-18T06:31:35;13.52;;;5.82;;
20391;SDS011;10355;53.688;10.078;2022-10-18T06:34:18;14.20;;;6.15;;
20391;SDS011;10355;53.688;10.078;2022-10-18T06:37:01;11.77;;;6.13;;
20391;SDS011;10355;53.688;10.078;2022-10-18T06:39:44;16.10;;;5.55;;
20391;SDS011;10355;53.688;10.078;2022-10-18T06:42:28;17.38;;;6.45;;
20391;SDS011;10355;53.688;10.078;2022-10-18T06:45:12;12.48;;;6.25;;
20391;SDS011;10355;53.688;10.078;2022-10-18T06:47:56;14.02;;;5.97;;
20391;SDS011;10355;53.688;10.078;2022-10-18T06:50:39;16.55;;;6.30;;
20391;SDS011;10355;53.688;10.078;2022-10-18T06:53:22;10.30;;;5.78;;
20391;SDS011;10355;53.688;10.078;2022-10-18T06:56:05;11.10;;;5.50;;
20391;SDS011;10355;53.688;10.078;2022-10-18T06:58:50;10.93;;;5.43;;
20391;SDS011;10355;53.688;10.078;2022-10-18T07:01:32;10.15;;;5.00;;
20391;SDS011;10355;53.688;10.078;2022-10-18T07:04:15;19.17;;;6.38;;
20391;SDS011;10355;53.688;10.078;2022-10-18T07:06:58;15.55;;;6.95;;
20391;SDS011;10355;53.688;10.078;2022-10-18T07:09:41;16.17;;;6.35;;
20391;SDS011;10355;53.688;10.078;2022-10-18T07:12:26;14.43;;;6.68;;
20391;SDS011;10355;53.688;10.078;2022-10-18T07:15:10;11.65;;;5.97;;
20391;SDS011;10355;53.688;10.078;2022-10-18T07:17:53;13.60;;;5.75;;
20391;SDS011;10355;53.688;10.078;2022-10-18T07:20:36;11.73;;;6.30;;
20391;SDS011;10355;53.688;10.078;2022-10-18T07:23:18;13.45;;;5.80;;
20391;SDS011;10355;53.688;10.078;2022-10-18T07:26:09;18.40;;;6.68;;
20391;SDS011;10355;53.688;10.078;2022-10-18T07:28:53;12.95;;;6.18;;
20391;SDS011;10355;53.688;10.078;2022-10-18T07:31:39;12.35;;;6.18;;
20391;SDS011;10355;53.688;10.078;2022-10-18T07:34:22;12.95;;;6.20;;
20391;SDS011;10355;53.688;10.078;2022-10-18T07:37:05;12.85;;;6.05;;
20391;SDS011;10355;53.688;10.078;2022-10-18T07:39:47;14.93;;;6.70;;
20391;SDS011;10355;53.688;10.078;2022-10-18T07:42:30;12.07;;;5.45;;
20391;SDS011;10355;53.688;10.078;2022-10-18T07:45:13;11.48;;;5.43;;
20391;SDS011;10355;53.688;10.078;2022-10-18T07:47:57;12.27;;;5.35;;
20391;SDS011;10355;53.688;10.078;2022-10-18T07:50:40;13.45;;;5.53;;
20391;SDS011;10355;53.688;10.078;2022-10-18T07:53:23;10.77;;;5.50;;
20391;SDS011;10355;53.688;10.078;2022-10-18T07:56:06;13.15;;;6.05;;
20391;SDS011;10355;53.688;10.078;2022-10-18T07:58:51;10.57;;;5.03;;
20391;SDS011;10355;53.688;10.078;2022-10-18T08:01:34;11.95;;;5.63;;
20391;SDS011;10355;53.688;10.078;2022-10-18T08:04:18;12.00;;;5.40;;
20391;SDS011;10355;53.688;10.078;2022-10-18T08:07:01;12.25;;;5.55;;
20391;SDS011;10355;53.688;10.078;2022-10-18T08:09:44;12.63;;;5.55;;
20391;SDS011;10355;53.688;10.078;2022-10-18T08:12:27;11.50;;;5.40;;
20391;SDS011;10355;53.688;10.078;2022-10-18T08:15:10;12.27;;;5.97;;
20391;SDS011;10355;53.688;10.078;2022-10-18T08:17:53;12.65;;;5.22;;
20391;SDS011;10355;53.688;10.078;2022-10-18T08:20:40;12.27;;;5.45;;
20391;SDS011;10355;53.688;10.078;2022-10-18T08:23:23;12.50;;;5.25;;
20391;SDS011;10355;53.688;10.078;2022-10-18T08:26:07;13.57;;;5.78;;
20391;SDS011;10355;53.688;10.078;2022-10-18T08:28:50;12.35;;;5.63;;
20391;SDS011;10355;53.688;10.078;2022-10-18T08:31:44;11.50;;;5.60;;
20391;SDS011;10355;53.688;10.078;2022-10-18T08:34:26;11.43;;;5.53;;
20391;SDS011;10355;53.688;10.078;2022-10-18T08:37:10;16.33;;;5.75;;
20391;SDS011;10355;53.688;10.078;2022-10-18T08:39:53;10.98;;;5.05;;
20391;SDS011;10355;53.688;10.078;2022-10-18T08:42:39;14.93;;;5.60;;
20391;SDS011;10355;53.688;10.078;2022-10-18T08:45:24;11.65;;;5.63;;
20391;SDS011;10355;53.688;10.078;2022-10-18T08:48:26;13.55;;;5.57;;
20391;SDS011;10355;53.688;10.078;2022-10-18T08:51:14;11.80;;;6.03;;
20391;SDS011;10355;53.688;10.078;2022-10-18T08:54:02;12.95;;;5.82;;
20391;SDS011;10355;53.688;10.078;2022-10-18T08:56:51;10.93;;;5.38;;
20391;SDS011;10355;53.688;10.078;2022-10-18T08:59:38;15.70;;;4.90;;
20391;SDS011;10355;53.688;10.078;2022-10-18T09:02:26;13.98;;;5.65;;
20391;SDS011;10355;53.688;10.078;2022-10-18T09:05:17;9.63;;;4.75;;
20391;SDS011;10355;53.688;10.078;2022-10-18T09:08:10;14.13;;;5.65;;
20391;SDS011;10355;53.688;10.078;2022-10-18T09:11:02;14.30;;;5.28;;
20391;SDS011;10355;53.688;10.078;2022-10-18T09:13:56;12.98;;;5.07;;
20391;SDS011;10355;53.688;10.078;2022-10-18T09:16:43;12.70;;;5.43;;
20391;SDS011;10355;53.688;10.078;2022-10-18T09:19:40;14.80;;;5.53;;
20391;SDS011;10355;53.688;10.078;2022-10-18T09:22:30;16.40;;;6.10;;
20391;SDS011;10355;53.688;10.078;2022-10-18T09:25:16;12.52;;;4.72;;
20391;SDS011;10355;53.688;10.078;2022-10-18T09:28:05;12.68;;;5.03;;
20391;SDS011;10355;53.688;10.078;2022-10-18T09:30:53;14.15;;;5.68;;
20391;SDS011;10355;53.688;10.078;2022-10-18T09:33:42;14.35;;;5.13;;
20391;SDS011;10355;53.688;10.078;2022-10-18T09:36:27;9.80;;;4.35;;
20391;SDS011;10355;53.688;10.078;2022-10-18T09:39:17;10.68;;;4.85;;
20391;SDS011;10355;53.688;10.078;2022-10-18T09:42:02;11.32;;;4.53;;
20391;SDS011;10355;53.688;10.078;2022-10-18T09:44:47;11.15;;;4.72;;
20391;SDS011;10355;53.688;10.078;2022-10-18T09:47:33;9.45;;;4.63;;
20391;SDS011;10355;53.688;10.078;2022-10-18T09:50:21;8.85;;;4.10;;
20391;SDS011;10355;53.688;10.078;2022-10-18T09:53:07;9.80;;;3.70;;
20391;SDS011;10355;53.688;10.078;2022-10-18T09:55:55;11.25;;;3.75;;
20391;SDS011;10355;53.688;10.078;2022-10-18T09:58:40;9.65;;;3.92;;
20391;SDS011;10355;53.688;10.078;2022-10-18T10:01:27;9.73;;;4.07;;
20391;SDS011;10355;53.688;10.078;2022-10-18T10:04:10;9.70;;;3.88;;
20391;SDS011;10355;53.688;10.078;2022-10-18T10:06:53;8.30;;;3.45;;
20391;SDS011;10355;53.688;10.078;2022-10-18T10:09:39;10.43;;;3.83;;
20391;SDS011;10355;53.688;10.078;2022-10-18T10:12:25;7.57;;;3.88;;
20391;SDS011;10355;53.688;10.078;2022-10-18T10:15:11;9.60;;;3.90;;
20391;SDS011;10355;53.688;10.078;2022-10-18T10:17:59;8.65;;;3.38;;
20391;SDS011;10355;53.688;10.078;2022-10-18T10:20:43;10.70;;;3.65;;
20391;SDS011;10355;53.688;10.078;2022-10-18T10:23:26;10.30;;;4.28;;
20391;SDS011;10355;53.688;10.078;2022-10-18T10:26:19;9.90;;;3.85;;
20391;SDS011;10355;53.688;10.078;2022-10-18T10:29:03;10.15;;;3.28;;
20391;SDS011;10355;53.688;10.078;2022-10-18T10:32:00;11.10;;;3.50;;
20391;SDS011;10355;53.688;10.078;2022-10-18T10:34:45;10.18;;;4.25;;
20391;SDS011;10355;53.688;10.078;2022-10-18T10:37:29;12.15;;;4.15;;
20391;SDS011;10355;53.688;10.078;2022-10-18T10:40:14;8.93;;;4.20;;
20391;SDS011;10355;53.688;10.078;2022-10-18T10:43:01;8.23;;;4.07;;
20391;SDS011;10355;53.688;10.078;2022-10-18T10:46:05;9.50;;;4.22;;
20391;SDS011;10355;53.688;10.078;2022-10-18T10:48:49;11.30;;;3.92;;
20391;SDS011;10355;53.688;10.078;2022-10-18T10:51:53;9.82;;;4.28;;
20391;SDS011;10355;53.688;10.078;2022-10-18T10:54:49;9.13;;;3.95;;
20391;SDS011;10355;53.688;10.078;2022-10-18T10:57:34;11.18;;;3.90;;
20391;SDS011;10355;53.688;10.078;2022-10-18T11:00:36;6.82;;;3.58;;
20391;SDS011;10355;53.688;10.078;2022-10-18T11:03:20;11.52;;;4.55;;
20391;SDS011;10355;53.688;10.078;2022-10-18T11:06:10;11.48;;;3.92;;
20391;SDS011;10355;53.688;10.078;2022-10-18T11:09:11;9.80;;;4.18;;
20391;SDS011;10355;53.688;10.078;2022-10-18T11:11:57;11.35;;;3.92;;
20391;SDS011;10355;53.688;10.078;2022-10-18T11:14:41;11.38;;;3.92;;
20391;SDS011;10355;53.688;10.078;2022-10-18T11:17:26;9.43;;;4.28;;
20391;SDS011;10355;53.688;10.078;2022-10-18T11:20:14;10.80;;;4.00;;
20391;SDS011;10355;53.688;10.078;2022-10-18T11:22:59;9.60;;;4.38;;
20391;SDS011;10355;53.688;10.078;2022-10-18T11:25:54;13.23;;;4.15;;
20391;SDS011;10355;53.688;10.078;2022-10-18T11:28:47;12.20;;;4.30;;
20391;SDS011;10355;53.688;10.078;2022-10-18T11:31:34;13.48;;;3.92;;
20391;SDS011;10355;53.688;10.078;2022-10-18T11:34:24;8.60;;;3.58;;
20391;SDS011;10355;53.688;10.078;2022-10-18T11:37:09;7.80;;;3.33;;
20391;SDS011;10355;53.688;10.078;2022-10-18T11:40:22;7.93;;;2.88;;
20391;SDS011;10355;53.688;10.078;2022-10-18T11:43:11;14.05;;;3.15;;
20391;SDS011;10355;53.688;10.078;2022-10-18T11:45:56;7.05;;;2.40;;
20391;SDS011;10355;53.688;10.078;2022-10-18T11:48:47;11.32;;;3.00;;
20391;SDS011;10355;53.688;10.078;2022-10-18T11:51:33;7.13;;;2.50;;
20391;SDS011;10355;53.688;10.078;2022-10-18T11:54:47;7.47;;;2.38;;
20391;SDS011;10355;53.688;10.078;2022-10-18T11:57:37;9.50;;;2.67;;
20391;SDS011;10355;53.688;10.078;2022-10-18T12:00:26;8.60;;;2.00;;
20391;SDS011;10355;53.688;10.078;2022-10-18T12:06:09;6.88;;;1.85;;
20391;SDS011;10355;53.688;10.078;2022-10-18T12:08:54;9.52;;;2.00;;
20391;SDS011;10355;53.688;10.078;2022-10-18T12:11:38;4.35;;;1.67;;
20391;SDS011;10355;53.688;10.078;2022-10-18T12:14:28;7.65;;;1.70;;
20391;SDS011;10355;53.688;10.078;2022-10-18T12:17:15;6.60;;;1.33;;
20391;SDS011;10355;53.688;10.078;2022-10-18T12:20:20;7.57;;;1.35;;
20391;SDS011;10355;53.688;10.078;2022-10-18T12:23:05;6.95;;;1.45;;
20391;SDS011;10355;53.688;10.078;2022-10-18T12:25:51;5.68;;;1.30;;
20391;SDS011;10355;53.688;10.078;2022-10-18T12:28:37;7.20;;;1.30;;
20391;SDS011;10355;53.688;10.078;2022-10-18T12:31:24;7.45;;;1.23;;
20391;SDS011;10355;53.688;10.078;2022-10-18T12:34:14;4.30;;;1.10;;
20391;SDS011;10355;53.688;10.078;2022-10-18T12:37:09;4.80;;;0.95;;
20391;SDS011;10355;53.688;10.078;2022-10-18T12:39:56;6.47;;;0.95;;
20391;SDS011;10355;53.688;10.078;2022-10-18T12:43:01;7.82;;;1.20;;
20391;SDS011;10355;53.688;10.078;2022-10-18T12:45:50;7.82;;;1.20;;
20391;SDS011;10355;53.688;10.078;2022-10-18T12:48:34;5.75;;;1.00;;
20391;SDS011;10355;53.688;10.078;2022-10-18T12:51:20;5.05;;;1.08;;
20391;SDS011;10355;53.688;10.078;2022-10-18T12:54:10;6.32;;;1.10;;
20391;SDS011;10355;53.688;10.078;2022-10-18T12:56:53;3.63;;;0.98;;
20391;SDS011;10355;53.688;10.078;2022-10-18T12:59:39;5.28;;;0.82;;
20391;SDS011;10355;53.688;10.078;2022-10-18T13:02:26;6.93;;;1.10;;
20391;SDS011;10355;53.688;10.078;2022-10-18T13:08:38;5.72;;;1.08;;
20391;SDS011;10355;53.688;10.078;2022-10-18T13:11:32;2.22;;;0.70;;
20391;SDS011;10355;53.688;10.078;2022-10-18T13:17:41;6.75;;;1.13;;
20391;SDS011;10355;53.688;10.078;2022-10-18T13:20:28;2.50;;;0.82;;
20391;SDS011;10355;53.688;10.078;2022-10-18T13:23:22;2.50;;;0.90;;
20391;SDS011;10355;53.688;10.078;2022-10-18T13:26:15;6.80;;;1.00;;
20391;SDS011;10355;53.688;10.078;2022-10-18T13:29:00;4.78;;;0.90;;
20391;SDS011;10355;53.688;10.078;2022-10-18T13:31:46;5.55;;;1.05;;
20391;SDS011;10355;53.688;10.078;2022-10-18T13:34:31;4.70;;;0.85;;
20391;SDS011;10355;53.688;10.078;2022-10-18T13:37:19;6.35;;;0.80;;
20391;SDS011;10355;53.688;10.078;2022-10-18T13:40:13;6.00;;;0.70;;
20391;SDS011;10355;53.688;10.078;2022-10-18T13:42:58;11.68;;;1.45;;
20391;SDS011;10355;53.688;10.078;2022-10-18T13:46:00;4.88;;;0.70;;
20391;SDS011;10355;53.688;10.078;2022-10-18T13:48:44;5.13;;;0.60;;
20391;SDS011;10355;53.688;10.078;2022-10-18T13:54:42;4.70;;;1.10;;
20391;SDS011;10355;53.688;10.078;2022-10-18T13:57:34;6.47;;;0.80;;
20391;SDS011;10355;53.688;10.078;2022-10-18T14:00:28;4.93;;;0.98;;
20391;SDS011;10355;53.688;10.078;2022-10-18T14:03:37;4.68;;;0.77;;
20391;SDS011;10355;53.688;10.078;2022-10-18T14:06:39;3.70;;;0.80;;
20391;SDS011;10355;53.688;10.078;2022-10-18T14:09:23;7.75;;;0.95;;
20391;SDS011;10355;53.688;10.078;2022-10-18T14:12:28;4.60;;;0.90;;
20391;SDS011;10355;53.688;10.078;2022-10-18T14:15:13;5.03;;;0.95;;
20391;SDS011;10355;53.688;10.078;2022-10-18T14:17:59;3.15;;;0.70;;
20391;SDS011;10355;53.688;10.078;2022-10-18T14:20:43;7.10;;;1.38;;
20391;SDS011;10355;53.688;10.078;2022-10-18T14:23:48;4.10;;;0.80;;
20391;SDS011;10355;53.688;10.078;2022-10-18T14:26:31;5.63;;;0.93;;
20391;SDS011;10355;53.688;10.078;2022-10-18T14:29:15;2.97;;;0.63;;
20391;SDS011;10355;53.688;10.078;2022-10-18T14:31:58;4.43;;;0.63;;
20391;SDS011;10355;53.688;10.078;2022-10-18T14:34:43;4.75;;;0.70;;
20391;SDS011;10355;53.688;10.078;2022-10-18T14:37:27;7.28;;;0.90;;
20391;SDS011;10355;53.688;10.078;2022-10-18T14:40:24;6.38;;;0.88;;
20391;SDS011;10355;53.688;10.078;2022-10-18T14:43:09;3.05;;;0.63;;
20391;SDS011;10355;53.688;10.078;2022-10-18T14:45:53;3.58;;;0.63;;
20391;SDS011;10355;53.688;10.078;2022-10-18T14:48:35;4.38;;;0.98;;
20391;SDS011;10355;53.688;10.078;2022-10-18T14:51:19;6.13;;;0.88;;
20391;SDS011;10355;53.688;10.078;2022-10-18T14:54:02;7.03;;;0.90;;
20391;SDS011;10355;53.688;10.078;2022-10-18T14:56:45;6.25;;;0.85;;
20391;SDS011;10355;53.688;10.078;2022-10-18T14:59:29;4.88;;;1.00;;
20391;SDS011;10355;53.688;10.078;2022-10-18T15:02:14;2.78;;;0.70;;
20391;SDS011;10355;53.688;10.078;2022-10-18T15:04:58;5.07;;;0.88;;
20391;SDS011;10355;53.688;10.078;2022-10-18T15:07:42;6.78;;;0.77;;
20391;SDS011;10355;53.688;10.078;2022-10-18T15:10:26;6.35;;;0.90;;
20391;SDS011;10355;53.688;10.078;2022-10-18T15:13:10;5.40;;;0.80;;
20391;SDS011;10355;53.688;10.078;2022-10-18T15:15:54;6.80;;;1.10;;
20391;SDS011;10355;53.688;10.078;2022-10-18T15:18:37;6.65;;;0.80;;
20391;SDS011;10355;53.688;10.078;2022-10-18T15:21:20;2.67;;;0.90;;
20391;SDS011;10355;53.688;10.078;2022-10-18T15:24:25;2.92;;;0.70;;
20391;SDS011;10355;53.688;10.078;2022-10-18T15:27:11;6.82;;;0.88;;
20391;SDS011;10355;53.688;10.078;2022-10-18T15:29:54;5.88;;;0.70;;
20391;SDS011;10355;53.688;10.078;2022-10-18T15:32:37;4.25;;;0.68;;
20391;SDS011;10355;53.688;10.078;2022-10-18T15:35:28;3.08;;;0.60;;
20391;SDS011;10355;53.688;10.078;2022-10-18T15:38:12;4.38;;;0.70;;
20391;SDS011;10355;53.688;10.078;2022-10-18T15:40:56;3.60;;;0.65;;
20391;SDS011;10355;53.688;10.078;2022-10-18T15:43:39;3.70;;;0.80;;
20391;SDS011;10355;53.688;10.078;2022-10-18T15:46:28;5.15;;;0.60;;
20391;SDS011;10355;53.688;10.078;2022-10-18T15:52:29;5.93;;;0.90;;
20391;SDS011;10355;53.688;10.078;2022-10-18T15:58:22;6.50;;;1.10;;
20391;SDS011;10355;53.688;10.078;2022-10-18T16:01:06;6.70;;;0.95;;
20391;SDS011;10355;53.688;10.078;2022-10-18T16:03:49;5.05;;;0.70;;
20391;SDS011;10355;53.688;10.078;2022-10-18T16:06:32;4.13;;;0.80;;
20391;SDS011;10355;53.688;10.078;2022-10-18T16:09:19;5.63;;;1.10;;
20391;SDS011;10355;53.688;10.078;2022-10-18T16:12:02;3.17;;;0.63;;
20391;SDS011;10355;53.688;10.078;2022-10-18T16:14:46;4.13;;;0.70;;
20391;SDS011;10355;53.688;10.078;2022-10-18T16:17:29;3.63;;;0.93;;
20391;SDS011;10355;53.688;10.078;2022-10-18T16:20:13;4.53;;;0.60;;
20391;SDS011;10355;53.688;10.078;2022-10-18T16:23:00;7.43;;;0.80;;
20391;SDS011;10355;53.688;10.078;2022-10-18T16:25:43;6.55;;;0.73;;
20391;SDS011;10355;53.688;10.078;2022-10-18T16:28:26;4.15;;;0.85;;
20391;SDS011;10355;53.688;10.078;2022-10-18T16:31:10;4.93;;;0.82;;
20391;SDS011;10355;53.688;10.078;2022-10-18T16:34:00;5.63;;;0.90;;
20391;SDS011;10355;53.688;10.078;2022-10-18T16:36:43;2.88;;;0.50;;
20391;SDS011;10355;53.688;10.078;2022-10-18T16:39:26;3.38;;;0.98;;
20391;SDS011;10355;53.688;10.078;2022-10-18T16:42:12;3.67;;;0.68;;
20391;SDS011;10355;53.688;10.078;2022-10-18T16:44:55;4.20;;;0.68;;